sensor_id;sensor_type;location;lat;lon;timestamp;temperature;humidity
17174;DHT22;8702;48.130;-1.696;2023-04-28T12:04:26;19.00;99.90
17174;DHT22;8702;48.130;-1.696;2023-04-28T12:07:04;19.10;99.90
17174;DHT22;8702;48.130;-1.696;2023-04-28T12:09:35;19.00;99.90
17174;DHT22;8702;48.130;-1.696;2023-04-28T12:12:05;19.10;99.90
17174;DHT22;8702;48.130;-1.696;2023-04-28T12:14:53;19.10;99.90
17174;DHT22;8702;48.130;-1.696;2023-04-28T12:17:24;19.20;99.90
17174;DHT22;8702;48.130;-1.696;2023-04-28T12:19:51;19.40;99.90
17174;DHT22;8702;48.130;-1.696;2023-04-28T12:22:18;19.40;99.90
17174;DHT22;8702;48.130;-1.696;2023-04-28T12:24:45;19.10;99.90
17174;DHT22;8702;48.130;-1.696;2023-04-28T12:27:17;19.20;99.90
17174;DHT22;8702;48.130;-1.696;2023-04-28T12:29:46;19.40;99.90
17174;DHT22;8702;48.130;-1.696;2023-04-28T12:32:13;19.40;99.90
17174;DHT22;8702;48.130;-1.696;2023-04-28T12:34:43;19.50;99.90
17174;DHT22;8702;48.130;-1.696;2023-04-28T12:37:10;19.60;99.90
17174;DHT22;8702;48.130;-1.696;2023-04-28T12:39:39;19.80;99.90
17174;DHT22;8702;48.130;-1.696;2023-04-28T12:42:08;19.90;99.90
17174;DHT22;8702;48.130;-1.696;2023-04-28T12:44:38;20.10;99.90
17174;DHT22;8702;48.130;-1.696;2023-04-28T12:47:06;20.00;99.90
17174;DHT22;8702;48.130;-1.696;2023-04-28T12:49:33;20.00;99.90
17174;DHT22;8702;48.130;-1.696;2023-04-28T12:52:01;19.90;99.90
17174;DHT22;8702;48.130;-1.696;2023-04-28T12:54:28;20.10;99.90
17174;DHT22;8702;48.130;-1.696;2023-04-28T12:56:55;20.30;99.90
17174;DHT22;8702;48.130;-1.696;2023-04-28T12:59:22;20.30;99.90
17174;DHT22;8702;48.130;-1.696;2023-04-28T13:01:52;20.40;99.90
17174;DHT22;8702;48.130;-1.696;2023-04-28T13:04:20;20.40;99.90
17174;DHT22;8702;48.130;-1.696;2023-04-28T13:06:47;20.40;99.90
17174;DHT22;8702;48.130;-1.696;2023-04-28T13:09:15;20.20;99.90
17174;DHT22;8702;48.130;-1.696;2023-04-28T13:11:42;20.40;99.90
17174;DHT22;8702;48.130;-1.696;2023-04-28T13:14:09;20.50;99.90
17174;DHT22;8702;48.130;-1.696;2023-04-28T13:16:36;20.60;99.90
17174;DHT22;8702;48.130;-1.696;2023-04-28T13:19:04;20.50;99.90
17174;DHT22;8702;48.130;-1.696;2023-04-28T13:21:35;20.30;99.90
17174;DHT22;8702;48.130;-1.696;2023-04-28T13:24:02;20.30;99.90
17174;DHT22;8702;48.130;-1.696;2023-04-28T13:26:30;20.30;99.90
17174;DHT22;8702;48.130;-1.696;2023-04-28T13:28:57;20.30;99.90
17174;DHT22;8702;48.130;-1.696;2023-04-28T13:31:24;20.30;99.90
17174;DHT22;8702;48.130;-1.696;2023-04-28T13:33:51;20.40;99.90
17174;DHT22;8702;48.130;-1.696;2023-04-28T13:36:20;20.40;99.90
17174;DHT22;8702;48.130;-1.696;2023-04-28T13:38:48;20.40;99.90
17174;DHT22;8702;48.130;-1.696;2023-04-28T13:41:15;21.00;99.90
17174;DHT22;8702;48.130;-1.696;2023-04-28T13:43:42;20.50;99.90
17174;DHT22;8702;48.130;-1.696;2023-04-28T13:46:10;20.60;99.90
17174;DHT22;8702;48.130;-1.696;2023-04-28T13:48:37;20.40;99.90
17174;DHT22;8702;48.130;-1.696;2023-04-28T14:13:20;20.40;99.90
17174;DHT22;8702;48.130;-1.696;2023-04-28T14:15:50;20.30;99.90
17174;DHT22;8702;48.130;-1.696;2023-04-28T14:18:17;20.30;99.90
17174;DHT22;8702;48.130;-1.696;2023-04-28T14:20:44;20.20;99.90
17174;DHT22;8702;48.130;-1.696;2023-04-28T14:25:40;20.30;99.90
17174;DHT22;8702;48.130;-1.696;2023-04-28T14:28:08;20.70;99.90
17174;DHT22;8702;48.130;-1.696;2023-04-28T15:00:24;21.50;99.90
17174;DHT22;8702;48.130;-1.696;2023-04-28T15:02:53;21.40;99.90
17174;DHT22;8702;48.130;-1.696;2023-04-28T15:05:20;21.70;99.90
17174;DHT22;8702;48.130;-1.696;2023-04-28T15:07:47;21.90;99.90
17174;DHT22;8702;48.130;-1.696;2023-04-28T15:25:09;21.00;99.90
17174;DHT22;8702;48.130;-1.696;2023-04-28T15:27:36;21.10;99.90
17174;DHT22;8702;48.130;-1.696;2023-04-28T15:30:04;21.30;99.90
17174;DHT22;8702;48.130;-1.696;2023-04-28T15:32:31;21.30;99.90
17174;DHT22;8702;48.130;-1.696;2023-04-28T15:34:58;21.30;99.90
17174;DHT22;8702;48.130;-1.696;2023-04-28T15:37:40;21.20;99.90
17174;DHT22;8702;48.130;-1.696;2023-04-28T15:40:08;21.10;99.90
17174;DHT22;8702;48.130;-1.696;2023-04-28T15:42:36;21.00;99.90
17174;DHT22;8702;48.130;-1.696;2023-04-28T15:45:04;20.90;99.90
17174;DHT22;8702;48.130;-1.696;2023-04-28T15:47:31;21.00;99.90
17174;DHT22;8702;48.130;-1.696;2023-04-28T15:49:58;21.00;99.90
17174;DHT22;8702;48.130;-1.696;2023-04-28T15:52:25;20.90;99.90
17174;DHT22;8702;48.130;-1.696;2023-04-28T15:54:54;21.00;99.90
17174;DHT22;8702;48.130;-1.696;2023-04-28T15:57:21;21.00;99.90
17174;DHT22;8702;48.130;-1.696;2023-04-28T15:59:48;21.00;99.90
17174;DHT22;8702;48.130;-1.696;2023-04-28T16:02:16;20.90;99.90
17174;DHT22;8702;48.130;-1.696;2023-04-28T16:04:43;20.90;99.90
17174;DHT22;8702;48.130;-1.696;2023-04-28T16:07:11;20.90;99.90
17174;DHT22;8702;48.130;-1.696;2023-04-28T16:09:38;20.80;99.90
17174;DHT22;8702;48.130;-1.696;2023-04-28T16:12:07;20.80;99.90
17174;DHT22;8702;48.130;-1.696;2023-04-28T16:14:34;20.50;99.90
17174;DHT22;8702;48.130;-1.696;2023-04-28T16:17:01;20.50;99.90
17174;DHT22;8702;48.130;-1.696;2023-04-28T16:19:28;20.40;99.90
17174;DHT22;8702;48.130;-1.696;2023-04-28T16:21:55;20.40;99.90
17174;DHT22;8702;48.130;-1.696;2023-04-28T16:24:28;20.30;99.90
17174;DHT22;8702;48.130;-1.696;2023-04-28T16:26:56;20.20;99.90
17174;DHT22;8702;48.130;-1.696;2023-04-28T16:29:27;20.10;99.90
17174;DHT22;8702;48.130;-1.696;2023-04-28T16:31:54;20.10;99.90
17174;DHT22;8702;48.130;-1.696;2023-04-28T16:34:21;19.90;99.90
17174;DHT22;8702;48.130;-1.696;2023-04-28T16:36:48;19.80;99.90
17174;DHT22;8702;48.130;-1.696;2023-04-28T16:39:15;19.80;99.90
17174;DHT22;8702;48.130;-1.696;2023-04-28T16:41:42;19.70;99.90
17174;DHT22;8702;48.130;-1.696;2023-04-28T16:44:09;19.60;99.90
17174;DHT22;8702;48.130;-1.696;2023-04-28T16:46:37;19.50;99.90
17174;DHT22;8702;48.130;-1.696;2023-04-28T16:58:56;18.90;99.90
17174;DHT22;8702;48.130;-1.696;2023-04-28T17:06:21;18.60;99.90
17174;DHT22;8702;48.130;-1.696;2023-04-28T17:11:16;18.50;99.90
17174;DHT22;8702;48.130;-1.696;2023-04-28T17:13:43;18.40;99.90
17174;DHT22;8702;48.130;-1.696;2023-04-28T17:16:10;18.30;99.90
17174;DHT22;8702;48.130;-1.696;2023-04-28T17:18:37;18.30;99.90
17174;DHT22;8702;48.130;-1.696;2023-04-28T17:21:07;18.20;99.90
17174;DHT22;8702;48.130;-1.696;2023-04-28T17:23:34;18.30;99.90
17174;DHT22;8702;48.130;-1.696;2023-04-28T17:26:01;18.20;99.90
17174;DHT22;8702;48.130;-1.696;2023-04-28T17:28:29;18.00;99.90
17174;DHT22;8702;48.130;-1.696;2023-04-28T17:30:57;17.90;99.90
17174;DHT22;8702;48.130;-1.696;2023-04-28T17:33:28;17.80;99.90
17174;DHT22;8702;48.130;-1.696;2023-04-28T17:35:55;17.80;99.90
17174;DHT22;8702;48.130;-1.696;2023-04-28T17:38:23;17.80;99.90
17174;DHT22;8702;48.130;-1.696;2023-04-28T17:40:50;17.80;99.90
17174;DHT22;8702;48.130;-1.696;2023-04-28T17:43:17;17.90;99.90
17174;DHT22;8702;48.130;-1.696;2023-04-28T17:45:45;17.70;99.90
17174;DHT22;8702;48.130;-1.696;2023-04-28T17:48:12;17.50;99.90
17174;DHT22;8702;48.130;-1.696;2023-04-28T17:50:39;17.50;99.90
17174;DHT22;8702;48.130;-1.696;2023-04-28T17:53:06;17.30;99.90
17174;DHT22;8702;48.130;-1.696;2023-04-28T17:55:34;17.30;99.90
17174;DHT22;8702;48.130;-1.696;2023-04-28T17:58:01;17.30;99.90
17174;DHT22;8702;48.130;-1.696;2023-04-28T18:00:28;17.20;99.90
17174;DHT22;8702;48.130;-1.696;2023-04-28T18:02:56;17.10;99.90
17174;DHT22;8702;48.130;-1.696;2023-04-28T18:05:23;17.00;99.90
17174;DHT22;8702;48.130;-1.696;2023-04-28T18:07:51;16.90;99.90
17174;DHT22;8702;48.130;-1.696;2023-04-28T18:10:18;16.90;99.90
17174;DHT22;8702;48.130;-1.696;2023-04-28T18:12:46;16.80;99.90
17174;DHT22;8702;48.130;-1.696;2023-04-28T18:15:13;16.70;99.90
17174;DHT22;8702;48.130;-1.696;2023-04-28T18:17:40;16.70;99.90
17174;DHT22;8702;48.130;-1.696;2023-04-28T18:20:08;16.50;99.90
17174;DHT22;8702;48.130;-1.696;2023-04-28T18:22:35;16.50;99.90
17174;DHT22;8702;48.130;-1.696;2023-04-28T18:25:04;16.50;99.90
17174;DHT22;8702;48.130;-1.696;2023-04-28T18:27:31;16.50;99.90
17174;DHT22;8702;48.130;-1.696;2023-04-28T18:29:59;16.50;99.90
17174;DHT22;8702;48.130;-1.696;2023-04-28T18:32:26;17.00;99.90
17174;DHT22;8702;48.130;-1.696;2023-04-28T18:34:54;16.30;99.90
17174;DHT22;8702;48.130;-1.696;2023-04-28T18:37:21;16.20;99.90
17174;DHT22;8702;48.130;-1.696;2023-04-28T18:39:48;16.30;99.90
17174;DHT22;8702;48.130;-1.696;2023-04-28T18:42:15;16.30;99.90
17174;DHT22;8702;48.130;-1.696;2023-04-28T18:44:42;16.10;99.90
17174;DHT22;8702;48.130;-1.696;2023-04-28T18:47:11;16.10;99.90
17174;DHT22;8702;48.130;-1.696;2023-04-28T18:49:38;16.00;99.90
17174;DHT22;8702;48.130;-1.696;2023-04-28T18:52:05;16.00;99.90
17174;DHT22;8702;48.130;-1.696;2023-04-28T18:54:32;16.00;99.90
17174;DHT22;8702;48.130;-1.696;2023-04-28T18:56:59;16.00;99.90
17174;DHT22;8702;48.130;-1.696;2023-04-28T18:59:26;16.00;99.90
17174;DHT22;8702;48.130;-1.696;2023-04-28T19:01:53;15.90;99.90
17174;DHT22;8702;48.130;-1.696;2023-04-28T19:04:21;15.80;99.90
17174;DHT22;8702;48.130;-1.696;2023-04-28T19:06:48;15.80;99.90
17174;DHT22;8702;48.130;-1.696;2023-04-28T19:09:16;15.80;99.90
17174;DHT22;8702;48.130;-1.696;2023-04-28T19:11:43;15.60;99.90
17174;DHT22;8702;48.130;-1.696;2023-04-28T19:14:11;15.50;99.90
17174;DHT22;8702;48.130;-1.696;2023-04-28T19:16:38;15.60;99.90
17174;DHT22;8702;48.130;-1.696;2023-04-28T19:19:05;15.60;99.90
17174;DHT22;8702;48.130;-1.696;2023-04-28T19:21:40;15.50;99.90
17174;DHT22;8702;48.130;-1.696;2023-04-28T19:24:07;15.50;99.90
17174;DHT22;8702;48.130;-1.696;2023-04-28T19:26:34;15.40;99.90
17174;DHT22;8702;48.130;-1.696;2023-04-28T19:29:01;15.30;99.90
17174;DHT22;8702;48.130;-1.696;2023-04-28T19:31:28;15.20;99.90
17174;DHT22;8702;48.130;-1.696;2023-04-28T19:33:56;15.20;99.90
17174;DHT22;8702;48.130;-1.696;2023-04-28T19:36:23;15.10;99.90
17174;DHT22;8702;48.130;-1.696;2023-04-28T19:38:51;15.10;99.90
17174;DHT22;8702;48.130;-1.696;2023-04-28T19:41:18;15.10;99.90
17174;DHT22;8702;48.130;-1.696;2023-04-28T19:43:45;15.10;99.90
17174;DHT22;8702;48.130;-1.696;2023-04-28T19:46:12;15.10;99.90
17174;DHT22;8702;48.130;-1.696;2023-04-28T19:48:39;15.00;99.90
17174;DHT22;8702;48.130;-1.696;2023-04-28T19:51:07;15.10;99.90
17174;DHT22;8702;48.130;-1.696;2023-04-28T19:53:34;15.10;99.90
17174;DHT22;8702;48.130;-1.696;2023-04-28T19:56:06;15.10;99.90
17174;DHT22;8702;48.130;-1.696;2023-04-28T19:58:34;15.20;99.90
17174;DHT22;8702;48.130;-1.696;2023-04-28T20:01:04;15.10;99.90
17174;DHT22;8702;48.130;-1.696;2023-04-28T20:03:31;15.10;99.90
17174;DHT22;8702;48.130;-1.696;2023-04-28T20:05:59;15.00;99.90
17174;DHT22;8702;48.130;-1.696;2023-04-28T20:08:25;15.10;99.90
17174;DHT22;8702;48.130;-1.696;2023-04-28T20:10:52;15.20;99.90
17174;DHT22;8702;48.130;-1.696;2023-04-28T20:13:21;15.10;99.90
17174;DHT22;8702;48.130;-1.696;2023-04-28T20:15:48;15.00;99.90
17174;DHT22;8702;48.130;-1.696;2023-04-28T20:18:16;15.00;99.90
17174;DHT22;8702;48.130;-1.696;2023-04-28T20:20:43;14.90;99.90
17174;DHT22;8702;48.130;-1.696;2023-04-28T20:23:10;14.90;99.90
17174;DHT22;8702;48.130;-1.696;2023-04-28T20:25:37;14.90;99.90
17174;DHT22;8702;48.130;-1.696;2023-04-28T20:28:04;14.80;99.90
17174;DHT22;8702;48.130;-1.696;2023-04-28T20:30:33;14.90;99.90
17174;DHT22;8702;48.130;-1.696;2023-04-28T20:33:01;14.80;99.90
17174;DHT22;8702;48.130;-1.696;2023-04-28T20:35:28;14.70;99.90
17174;DHT22;8702;48.130;-1.696;2023-04-28T20:37:56;14.60;99.90
17174;DHT22;8702;48.130;-1.696;2023-04-28T20:40:23;14.50;99.90
17174;DHT22;8702;48.130;-1.696;2023-04-28T20:42:50;14.50;99.90
17174;DHT22;8702;48.130;-1.696;2023-04-28T20:45:17;14.40;99.90
17174;DHT22;8702;48.130;-1.696;2023-04-28T20:47:46;14.40;99.90
17174;DHT22;8702;48.130;-1.696;2023-04-28T20:50:13;14.30;99.90
17174;DHT22;8702;48.130;-1.696;2023-04-28T20:52:43;14.40;99.90
17174;DHT22;8702;48.130;-1.696;2023-04-28T20:55:10;14.40;99.90
17174;DHT22;8702;48.130;-1.696;2023-04-28T20:57:37;14.30;99.90
17174;DHT22;8702;48.130;-1.696;2023-04-28T21:00:05;14.20;99.90
17174;DHT22;8702;48.130;-1.696;2023-04-28T21:02:32;14.10;99.90
17174;DHT22;8702;48.130;-1.696;2023-04-28T21:05:01;14.10;99.90
17174;DHT22;8702;48.130;-1.696;2023-04-28T21:07:28;14.20;99.90
17174;DHT22;8702;48.130;-1.696;2023-04-28T21:09:56;14.10;99.90
17174;DHT22;8702;48.130;-1.696;2023-04-28T21:12:23;13.90;99.90
17174;DHT22;8702;48.130;-1.696;2023-04-28T21:14:50;14.00;99.90
17174;DHT22;8702;48.130;-1.696;2023-04-28T21:17:17;14.10;99.90
17174;DHT22;8702;48.130;-1.696;2023-04-28T21:19:44;14.10;99.90
17174;DHT22;8702;48.130;-1.696;2023-04-28T21:22:13;14.20;99.90
17174;DHT22;8702;48.130;-1.696;2023-04-28T21:24:40;14.10;99.90
17174;DHT22;8702;48.130;-1.696;2023-04-28T21:27:07;14.10;99.90
17174;DHT22;8702;48.130;-1.696;2023-04-28T21:29:34;14.00;99.90
17174;DHT22;8702;48.130;-1.696;2023-04-28T21:32:00;14.00;99.90
17174;DHT22;8702;48.130;-1.696;2023-04-28T21:34:27;14.00;99.90
17174;DHT22;8702;48.130;-1.696;2023-04-28T21:36:55;14.00;99.90
17174;DHT22;8702;48.130;-1.696;2023-04-28T21:39:23;14.10;99.90
17174;DHT22;8702;48.130;-1.696;2023-04-28T21:41:51;14.10;99.90
17174;DHT22;8702;48.130;-1.696;2023-04-28T21:44:18;13.90;99.90
17174;DHT22;8702;48.130;-1.696;2023-04-28T21:46:45;13.90;99.90
17174;DHT22;8702;48.130;-1.696;2023-04-28T21:49:12;13.80;99.90
17174;DHT22;8702;48.130;-1.696;2023-04-28T21:51:39;13.70;99.90
17174;DHT22;8702;48.130;-1.696;2023-04-28T21:54:07;13.70;99.90
17174;DHT22;8702;48.130;-1.696;2023-04-28T21:56:35;13.60;99.90
17174;DHT22;8702;48.130;-1.696;2023-04-28T21:59:02;13.60;99.90
17174;DHT22;8702;48.130;-1.696;2023-04-28T22:01:30;13.60;99.90
17174;DHT22;8702;48.130;-1.696;2023-04-28T22:03:57;13.70;99.90
17174;DHT22;8702;48.130;-1.696;2023-04-28T22:06:25;13.70;99.90
17174;DHT22;8702;48.130;-1.696;2023-04-28T22:08:52;13.70;99.90
17174;DHT22;8702;48.130;-1.696;2023-04-28T22:11:21;13.70;99.90
17174;DHT22;8702;48.130;-1.696;2023-04-28T22:14:07;13.70;99.90
17174;DHT22;8702;48.130;-1.696;2023-04-28T22:16:34;13.70;99.90
17174;DHT22;8702;48.130;-1.696;2023-04-28T22:19:02;13.60;99.90
17174;DHT22;8702;48.130;-1.696;2023-04-28T22:21:30;13.60;99.90
17174;DHT22;8702;48.130;-1.696;2023-04-28T22:23:57;13.50;99.90
17174;DHT22;8702;48.130;-1.696;2023-04-28T22:26:24;13.50;99.90
17174;DHT22;8702;48.130;-1.696;2023-04-28T22:28:53;13.40;99.90
17174;DHT22;8702;48.130;-1.696;2023-04-28T22:31:22;13.50;99.90
17174;DHT22;8702;48.130;-1.696;2023-04-28T22:33:49;13.60;99.90
17174;DHT22;8702;48.130;-1.696;2023-04-28T22:36:16;13.60;99.90
17174;DHT22;8702;48.130;-1.696;2023-04-28T22:38:43;13.70;99.90
17174;DHT22;8702;48.130;-1.696;2023-04-28T22:41:13;13.60;99.90
17174;DHT22;8702;48.130;-1.696;2023-04-28T22:43:40;13.70;99.90
17174;DHT22;8702;48.130;-1.696;2023-04-28T22:46:08;13.70;99.90
17174;DHT22;8702;48.130;-1.696;2023-04-28T22:48:36;13.80;99.90
17174;DHT22;8702;48.130;-1.696;2023-04-28T22:51:04;13.80;99.90
17174;DHT22;8702;48.130;-1.696;2023-04-28T22:53:31;13.90;99.90
17174;DHT22;8702;48.130;-1.696;2023-04-28T22:55:58;13.80;99.90
17174;DHT22;8702;48.130;-1.696;2023-04-28T22:58:27;13.80;99.90
17174;DHT22;8702;48.130;-1.696;2023-04-28T23:00:59;13.80;99.90
17174;DHT22;8702;48.130;-1.696;2023-04-28T23:03:26;13.80;99.90
17174;DHT22;8702;48.130;-1.696;2023-04-28T23:05:54;13.80;99.90
17174;DHT22;8702;48.130;-1.696;2023-04-28T23:08:21;13.70;99.90
17174;DHT22;8702;48.130;-1.696;2023-04-28T23:10:48;13.70;99.90
17174;DHT22;8702;48.130;-1.696;2023-04-28T23:13:15;13.70;99.90
17174;DHT22;8702;48.130;-1.696;2023-04-28T23:15:42;13.60;99.90
17174;DHT22;8702;48.130;-1.696;2023-04-28T23:18:10;13.60;99.90
17174;DHT22;8702;48.130;-1.696;2023-04-28T23:20:37;13.50;99.90
17174;DHT22;8702;48.130;-1.696;2023-04-28T23:23:05;13.40;99.90
17174;DHT22;8702;48.130;-1.696;2023-04-28T23:25:32;13.30;99.90
17174;DHT22;8702;48.130;-1.696;2023-04-28T23:28:01;13.40;99.90
17174;DHT22;8702;48.130;-1.696;2023-04-28T23:30:35;13.40;99.90
17174;DHT22;8702;48.130;-1.696;2023-04-28T23:33:02;13.40;99.90
17174;DHT22;8702;48.130;-1.696;2023-04-28T23:35:30;13.50;99.90
17174;DHT22;8702;48.130;-1.696;2023-04-28T23:37:57;13.70;99.90
17174;DHT22;8702;48.130;-1.696;2023-04-28T23:40:26;13.70;99.90
17174;DHT22;8702;48.130;-1.696;2023-04-28T23:42:53;13.70;99.90
17174;DHT22;8702;48.130;-1.696;2023-04-28T23:45:21;13.70;99.90
17174;DHT22;8702;48.130;-1.696;2023-04-28T23:47:48;13.70;99.90
17174;DHT22;8702;48.130;-1.696;2023-04-28T23:50:15;13.60;99.90
17174;DHT22;8702;48.130;-1.696;2023-04-28T23:52:42;13.60;99.90
17174;DHT22;8702;48.130;-1.696;2023-04-28T23:55:10;13.60;99.90
17174;DHT22;8702;48.130;-1.696;2023-04-28T23:57:42;13.50;99.90
